Time;durP1;ratioP1;P1;durP2;ratioP2;P2;SDS_P1;SDS_P2;PMS_P1;PMS_P2;Temp;Humidity;BMP_temperature;BMP_pressure;BME280_temperature;BME280_humidity;BME280_pressure;Samples;Min_cycle;Max_cycle;Signal;HPM_P1;HPM_P2
2021/12/22 00:02:22;;;;;;;21.37;13.20;;;-2.30;99.90;;;;;;5075090;28;20044;-81
2021/12/22 00:04:49;;;;;;;22.87;14.47;;;-2.30;99.90;;;;;;5077532;28;20547;-81
2021/12/22 00:07:15;;;;;;;23.87;13.07;;;-2.40;99.90;;;;;;5059040;28;20340;-81
2021/12/22 00:09:43;;;;;;;24.97;15.27;;;-2.40;99.90;;;;;;5072458;28;20295;-81
2021/12/22 00:12:09;;;;;;;22.93;13.87;;;-2.40;99.90;;;;;;5042432;28;20131;-81
2021/12/22 00:14:36;;;;;;;24.60;13.83;;;-2.40;99.90;;;;;;5073225;28;20366;-81
2021/12/22 00:17:02;;;;;;;23.07;13.20;;;-2.40;99.90;;;;;;5064319;22;20745;-82
2021/12/22 00:19:28;;;;;;;20.93;12.50;;;-2.40;99.90;;;;;;5041191;28;20324;-82
2021/12/22 00:21:53;;;;;;;22.30;13.53;;;-2.50;99.90;;;;;;5057270;28;20294;-83
2021/12/22 00:24:19;;;;;;;25.63;13.37;;;-2.50;99.90;;;;;;5057060;28;20052;-82
2021/12/22 00:26:46;;;;;;;25.00;13.27;;;-2.50;99.90;;;;;;5072233;28;20067;-82
2021/12/22 00:29:13;;;;;;;23.90;14.10;;;-2.60;99.90;;;;;;5056723;28;20055;-82
2021/12/22 00:31:43;;;;;;;24.80;13.97;;;-2.60;99.90;;;;;;5056655;28;20290;-82
2021/12/22 00:34:17;;;;;;;21.27;13.80;;;-2.60;99.90;;;;;;5077158;28;20304;-82
2021/12/22 00:36:43;;;;;;;19.88;12.57;;;-2.60;99.90;;;;;;5049744;28;20298;-82
2021/12/22 00:39:09;;;;;;;22.20;13.50;;;-2.60;99.90;;;;;;5051964;28;20072;-82
2021/12/22 00:41:35;;;;;;;25.57;12.83;;;-2.60;99.90;;;;;;5059244;28;20321;-82
2021/12/22 00:44:03;;;;;;;19.17;12.30;;;-2.60;99.90;;;;;;5060895;28;20097;-82
2021/12/22 00:46:29;;;;;;;20.93;12.57;;;-2.60;99.90;;;;;;5059608;28;20051;-82
2021/12/22 00:48:55;;;;;;;20.53;12.63;;;-2.60;99.90;;;;;;5077830;28;20298;-82
2021/12/22 00:51:21;;;;;;;20.27;12.80;;;-2.70;99.90;;;;;;5064478;28;20554;-82
2021/12/22 00:53:46;;;;;;;22.07;13.37;;;-2.70;99.90;;;;;;5043683;28;20048;-82
2021/12/22 00:56:12;;;;;;;27.47;13.73;;;-2.70;99.90;;;;;;5052553;28;20055;-82
2021/12/22 00:58:39;;;;;;;21.73;12.37;;;-2.70;99.90;;;;;;5053860;28;20044;-81
2021/12/22 01:01:06;;;;;;;20.80;12.80;;;-2.70;99.90;;;;;;5045341;28;20298;-81
2021/12/22 01:03:35;;;;;;;22.60;12.80;;;-2.70;99.90;;;;;;5043206;28;20305;-82
2021/12/22 01:06:01;;;;;;;18.83;11.23;;;-2.70;99.90;;;;;;5059666;28;20294;-82
2021/12/22 01:08:26;;;;;;;21.90;11.37;;;-2.70;99.90;;;;;;5067860;28;20320;-82
2021/12/22 01:10:52;;;;;;;24.73;12.87;;;-2.80;99.90;;;;;;5043260;28;20309;-82
2021/12/22 01:13:18;;;;;;;23.40;13.30;;;-2.80;99.90;;;;;;5060051;28;20051;-82
2021/12/22 01:15:44;;;;;;;21.43;12.63;;;-2.80;99.90;;;;;;5059746;28;20050;-82
2021/12/22 01:18:15;;;;;;;17.17;11.50;;;-2.80;99.90;;;;;;5059389;28;20047;-83
2021/12/22 01:20:59;;;;;;;20.17;12.00;;;-2.80;99.90;;;;;;5081735;28;20573;-81
2021/12/22 01:23:24;;;;;;;20.75;11.43;;;-2.80;99.90;;;;;;5051903;28;20306;-81
2021/12/22 01:25:51;;;;;;;17.33;11.30;;;-2.80;99.90;;;;;;5059712;28;20040;-83
2021/12/22 01:28:18;;;;;;;21.30;11.93;;;-2.90;99.90;;;;;;5053734;28;20134;-81
2021/12/22 01:30:47;;;;;;;18.33;11.77;;;-2.90;99.90;;;;;;5059741;28;20298;-82
2021/12/22 01:33:15;;;;;;;20.07;12.07;;;-2.90;99.90;;;;;;5060590;28;20298;-82
2021/12/22 01:35:41;;;;;;;21.63;12.57;;;-2.90;99.90;;;;;;5062612;28;20320;-82
2021/12/22 01:38:08;;;;;;;19.33;12.27;;;-2.90;99.90;;;;;;5057084;28;20326;-81
2021/12/22 01:40:35;;;;;;;20.70;12.00;;;-2.90;99.90;;;;;;5060347;28;20294;-82
2021/12/22 01:43:04;;;;;;;22.37;11.53;;;-3.00;99.90;;;;;;5042117;28;20381;-81
2021/12/22 01:51:30;;;;;;;18.80;11.97;;;-3.00;99.90;;;;;;5058093;28;20849;-81
2021/12/22 01:53:59;;;;;;;23.37;12.63;;;-3.10;99.90;;;;;;5046637;28;20298;-81
2021/12/22 01:56:27;;;;;;;25.67;12.60;;;-3.00;99.90;;;;;;5059535;28;20392;-81
2021/12/22 01:58:56;;;;;;;20.83;12.43;;;-3.10;99.90;;;;;;5057664;28;20302;-81
2021/12/22 02:01:22;;;;;;;23.83;12.67;;;-3.10;99.90;;;;;;5039524;28;20328;-81
2021/12/22 02:03:51;;;;;;;20.03;12.03;;;-3.10;99.90;;;;;;5058163;28;20713;-80
2021/12/22 02:06:18;;;;;;;18.33;11.43;;;-3.10;99.90;;;;;;5056675;28;20656;-81
2021/12/22 02:08:45;;;;;;;20.40;11.80;;;-3.10;99.90;;;;;;5085651;28;20301;-81
2021/12/22 02:11:12;;;;;;;21.83;12.20;;;-3.10;99.90;;;;;;5075157;28;20322;-80
2021/12/22 02:13:41;;;;;;;25.30;11.47;;;-3.20;99.90;;;;;;5074613;28;20381;-80
2021/12/22 02:16:11;;;;;;;22.87;13.60;;;-3.20;99.90;;;;;;5042062;28;20290;-80
2021/12/22 02:18:41;;;;;;;21.93;12.67;;;-3.20;99.90;;;;;;5074043;28;20301;-80
2021/12/22 02:21:08;;;;;;;25.30;13.63;;;-3.20;99.90;;;;;;5057903;28;20309;-80
2021/12/22 02:23:34;;;;;;;26.10;12.83;;;-3.20;99.90;;;;;;5058255;28;20302;-80
2021/12/22 02:26:09;;;;;;;27.17;13.10;;;-3.20;99.90;;;;;;5074706;28;20300;-80
2021/12/22 02:28:37;;;;;;;23.20;12.57;;;-3.20;99.90;;;;;;5068167;28;20508;-80
2021/12/22 02:31:03;;;;;;;29.30;14.07;;;-3.20;99.90;;;;;;5043337;28;20552;-80
2021/12/22 02:33:36;;;;;;;24.30;13.97;;;-3.20;99.90;;;;;;5058468;28;20364;-80
2021/12/22 02:38:32;;;;;;;26.23;13.37;;;-3.20;99.90;;;;;;5055874;28;20135;-80
2021/12/22 02:40:57;;;;;;;27.13;14.07;;;-3.20;99.90;;;;;;5083577;28;20336;-79
2021/12/22 02:43:30;;;;;;;23.27;12.77;;;-3.20;99.90;;;;;;5057493;28;20305;-80
2021/12/22 02:45:55;;;;;;;22.17;13.03;;;-3.20;99.90;;;;;;5040303;28;20043;-80
2021/12/22 02:48:23;;;;;;;24.73;13.57;;;-3.20;99.90;;;;;;5033909;28;20298;-80
2021/12/22 02:50:49;;;;;;;24.23;13.13;;;-3.20;99.90;;;;;;5056683;28;20491;-79
2021/12/22 02:53:16;;;;;;;21.70;12.50;;;-3.20;99.90;;;;;;5069399;28;20301;-79
2021/12/22 02:55:50;;;;;;;24.93;12.93;;;-3.30;99.90;;;;;;5064640;28;20927;-79
2021/12/22 02:58:29;;;;;;;23.50;13.03;;;-3.30;99.90;;;;;;5055414;28;20298;-78
2021/12/22 03:03:46;;;;;;;23.33;13.67;;;-3.30;99.90;;;;;;5056404;28;20778;-79
2021/12/22 03:06:16;;;;;;;27.37;14.47;;;-3.30;99.90;;;;;;5039393;28;20308;-79
2021/12/22 03:08:42;;;;;;;27.73;13.90;;;-3.40;99.90;;;;;;5064037;28;20290;-79
2021/12/22 03:11:09;;;;;;;22.03;12.90;;;-3.40;99.90;;;;;;5041758;28;20363;-79
2021/12/22 03:13:35;;;;;;;22.70;13.13;;;-3.40;99.90;;;;;;5072080;28;20570;-79
2021/12/22 03:16:00;;;;;;;25.23;13.43;;;-3.40;99.90;;;;;;5056685;28;20306;-79
2021/12/22 03:18:26;;;;;;;27.37;14.20;;;-3.40;99.90;;;;;;5071740;28;20617;-79
2021/12/22 03:21:01;;;;;;;24.90;14.07;;;-3.40;99.90;;;;;;5039357;28;20044;-79
2021/12/22 03:23:27;;;;;;;22.30;12.60;;;-3.40;99.90;;;;;;5065229;28;20471;-79
2021/12/22 03:25:53;;;;;;;23.80;13.80;;;-3.40;99.90;;;;;;5056072;28;20298;-79
2021/12/22 03:28:20;;;;;;;22.20;14.23;;;-3.40;99.90;;;;;;5061372;28;20043;-79
2021/12/22 03:30:45;;;;;;;26.50;14.87;;;-3.40;99.90;;;;;;5060892;28;20301;-79
2021/12/22 03:33:11;;;;;;;26.73;14.60;;;-3.40;99.90;;;;;;5037102;28;20813;-79
2021/12/22 03:35:39;;;;;;;26.77;16.10;;;-3.40;99.90;;;;;;5070184;28;20056;-79
2021/12/22 03:38:05;;;;;;;31.10;16.23;;;-3.50;99.90;;;;;;5054005;28;20046;-79
2021/12/22 03:40:31;;;;;;;33.90;17.83;;;-3.50;99.90;;;;;;5056563;28;20344;-79
2021/12/22 03:42:56;;;;;;;29.50;16.77;;;-3.50;99.90;;;;;;5072306;28;20301;-79
2021/12/22 03:45:24;;;;;;;29.37;16.57;;;-3.50;99.90;;;;;;5040289;28;20050;-78
2021/12/22 03:47:49;;;;;;;27.80;16.03;;;-3.50;99.90;;;;;;5054520;28;20058;-79
2021/12/22 03:50:17;;;;;;;28.20;15.87;;;-3.50;99.90;;;;;;5076672;28;20298;-79
2021/12/22 03:52:43;;;;;;;25.83;15.43;;;-3.60;99.90;;;;;;5071940;28;20093;-78
2021/12/22 03:55:09;;;;;;;32.47;18.07;;;-3.60;99.90;;;;;;5044831;28;20702;-79
2021/12/22 03:57:35;;;;;;;30.00;18.87;;;-3.60;99.90;;;;;;5079300;28;20040;-78
2021/12/22 04:00:03;;;;;;;35.70;20.40;;;-3.60;99.90;;;;;;5056569;28;20293;-78
2021/12/22 04:02:32;;;;;;;37.20;20.53;;;-3.70;99.90;;;;;;5083448;28;20040;-78
2021/12/22 04:04:58;;;;;;;33.70;18.57;;;-3.60;99.90;;;;;;5056382;28;20804;-78
2021/12/22 04:07:24;;;;;;;36.70;19.13;;;-3.60;99.90;;;;;;5056410;28;20362;-79
2021/12/22 04:09:49;;;;;;;34.17;18.50;;;-3.60;99.90;;;;;;5064682;28;20425;-79
2021/12/22 04:12:15;;;;;;;36.00;19.97;;;-3.60;99.90;;;;;;5060526;28;20036;-78
2021/12/22 04:14:41;;;;;;;36.27;20.53;;;-3.60;99.90;;;;;;5059715;28;20051;-78
2021/12/22 04:17:06;;;;;;;33.97;18.97;;;-3.60;99.90;;;;;;5039373;28;20071;-78
2021/12/22 04:19:34;;;;;;;35.47;18.77;;;-3.70;99.90;;;;;;5059485;28;20046;-78
2021/12/22 04:22:00;;;;;;;33.07;17.83;;;-3.70;99.90;;;;;;5075505;28;20059;-79
2021/12/22 04:24:25;;;;;;;32.70;18.13;;;-3.70;99.90;;;;;;5059177;28;20306;-78
2021/12/22 04:26:51;;;;;;;34.13;18.47;;;-3.70;99.90;;;;;;5075308;28;20048;-79
2021/12/22 04:29:18;;;;;;;32.87;18.40;;;-3.70;99.90;;;;;;5059508;28;20040;-78
2021/12/22 04:31:44;;;;;;;35.87;18.93;;;-3.70;99.90;;;;;;5047115;28;20040;-78
2021/12/22 04:34:10;;;;;;;36.90;19.50;;;-3.70;99.90;;;;;;5059838;28;20305;-78
2021/12/22 04:36:39;;;;;;;32.80;19.67;;;-3.70;99.90;;;;;;5058861;28;20396;-78
2021/12/22 04:39:06;;;;;;;35.57;18.33;;;-3.70;99.90;;;;;;5048262;28;20052;-78
2021/12/22 04:41:32;;;;;;;33.27;18.00;;;-3.80;99.90;;;;;;5088500;28;20820;-79
2021/12/22 04:43:58;;;;;;;31.97;17.73;;;-3.80;99.90;;;;;;5059568;28;20317;-78
2021/12/22 04:46:24;;;;;;;30.13;17.53;;;-3.80;99.90;;;;;;5041555;28;20803;-78
2021/12/22 04:48:50;;;;;;;30.93;17.03;;;-3.80;99.90;;;;;;5079197;28;20048;-79
2021/12/22 04:51:25;;;;;;;30.73;16.93;;;-3.80;99.90;;;;;;5059299;28;20317;-79
2021/12/22 04:54:12;;;;;;;32.67;16.47;;;-3.80;99.90;;;;;;5074681;28;20126;-78
2021/12/22 04:56:39;;;;;;;31.43;17.13;;;-3.80;99.90;;;;;;5035196;28;20858;-78
2021/12/22 04:59:05;;;;;;;27.20;15.83;;;-3.80;99.90;;;;;;5060143;28;20294;-78
2021/12/22 05:01:31;;;;;;;29.33;16.60;;;-3.80;99.90;;;;;;5074135;28;20666;-78
2021/12/22 05:03:56;;;;;;;30.73;16.13;;;-3.90;99.90;;;;;;5075978;28;20293;-78
2021/12/22 05:06:23;;;;;;;31.40;15.73;;;-3.90;99.90;;;;;;5074994;28;20123;-78
2021/12/22 05:08:48;;;;;;;26.90;15.97;;;-3.90;99.90;;;;;;5058330;28;20044;-78
2021/12/22 05:11:15;;;;;;;28.27;15.43;;;-3.90;99.90;;;;;;5083800;28;20293;-78
2021/12/22 05:13:41;;;;;;;27.50;15.93;;;-3.90;99.90;;;;;;5058794;28;20134;-77
2021/12/22 05:16:07;;;;;;;29.23;16.23;;;-3.90;99.90;;;;;;5074744;28;20380;-78
2021/12/22 05:18:56;;;;;;;32.67;17.17;;;-3.90;99.90;;;;;;5057196;28;20040;-78
2021/12/22 05:21:22;;;;;;;34.97;17.70;;;-4.00;99.90;;;;;;5049627;28;20044;-78
2021/12/22 05:23:48;;;;;;;32.63;15.17;;;-4.00;99.90;;;;;;5058976;28;20286;-78
2021/12/22 05:26:15;;;;;;;31.03;16.77;;;-3.90;99.90;;;;;;5057522;28;20333;-78
2021/12/22 05:28:41;;;;;;;29.33;17.03;;;-3.90;99.90;;;;;;5058192;28;20560;-78
2021/12/22 05:31:07;;;;;;;29.93;16.97;;;-3.90;99.90;;;;;;5075954;28;20333;-78
2021/12/22 05:33:33;;;;;;;33.63;17.13;;;-3.90;99.90;;;;;;5075683;28;20055;-78
2021/12/22 05:35:58;;;;;;;33.40;16.43;;;-3.90;99.90;;;;;;5042603;28;20067;-78
2021/12/22 05:38:24;;;;;;;30.97;16.50;;;-3.90;99.90;;;;;;5074662;28;20521;-78
2021/12/22 05:40:50;;;;;;;31.90;16.83;;;-3.90;99.90;;;;;;5062211;28;20043;-78
2021/12/22 05:43:17;;;;;;;31.10;16.53;;;-3.90;99.90;;;;;;5058630;28;20562;-78
2021/12/22 05:45:43;;;;;;;31.87;17.50;;;-3.90;99.90;;;;;;5058297;28;20063;-77
2021/12/22 05:48:08;;;;;;;30.17;15.73;;;-3.90;99.90;;;;;;5047045;28;20816;-78
2021/12/22 05:50:34;;;;;;;26.60;15.70;;;-3.90;99.90;;;;;;5080636;28;20089;-78
2021/12/22 05:53:00;;;;;;;29.77;15.57;;;-3.80;99.90;;;;;;5049785;28;20040;-78
2021/12/22 05:55:26;;;;;;;29.97;15.97;;;-3.90;99.90;;;;;;5074494;28;20044;-78
2021/12/22 05:57:52;;;;;;;30.80;14.80;;;-3.90;99.90;;;;;;5060234;28;20055;-78
2021/12/22 06:00:22;;;;;;;29.63;16.50;;;-3.80;99.90;;;;;;5051116;28;20131;-78
2021/12/22 06:02:48;;;;;;;29.43;15.00;;;-3.80;99.90;;;;;;5058175;28;20310;-78
2021/12/22 06:05:14;;;;;;;25.70;15.30;;;-3.90;99.90;;;;;;5062370;28;20376;-78
2021/12/22 06:07:40;;;;;;;31.53;16.13;;;-3.90;99.90;;;;;;5055677;28;20424;-78
2021/12/22 06:10:06;;;;;;;28.83;15.90;;;-3.80;99.90;;;;;;5072885;28;20298;-78
2021/12/22 06:12:32;;;;;;;27.93;15.90;;;-3.90;99.90;;;;;;5074724;28;20048;-79
2021/12/22 06:14:58;;;;;;;30.20;15.93;;;-3.90;99.90;;;;;;5058050;28;20791;-78
2021/12/22 06:17:25;;;;;;;27.93;15.40;;;-3.80;99.90;;;;;;5063382;28;20475;-78
2021/12/22 06:19:51;;;;;;;37.77;15.30;;;-3.80;99.90;;;;;;5066293;28;20052;-78
2021/12/22 06:22:16;;;;;;;31.40;16.37;;;-3.80;99.90;;;;;;5039334;28;20421;-78
2021/12/22 06:24:42;;;;;;;28.83;15.13;;;-3.80;99.90;;;;;;5056542;28;20173;-78
2021/12/22 06:27:08;;;;;;;35.50;15.97;;;-3.80;99.90;;;;;;5056657;28;20050;-78
2021/12/22 06:29:33;;;;;;;27.93;15.67;;;-3.80;99.90;;;;;;5073106;28;20040;-78
2021/12/22 06:31:59;;;;;;;29.73;15.60;;;-3.80;99.90;;;;;;5072822;28;20125;-78
2021/12/22 06:34:26;;;;;;;30.77;15.47;;;-3.80;99.90;;;;;;5071155;28;20126;-77
2021/12/22 06:36:52;;;;;;;34.77;16.30;;;-3.80;99.90;;;;;;5045702;28;20040;-77
2021/12/22 06:39:18;;;;;;;31.67;16.30;;;-3.80;99.90;;;;;;5074773;28;20670;-77
2021/12/22 06:41:44;;;;;;;30.20;15.83;;;-3.80;99.90;;;;;;5073165;28;20041;-78
2021/12/22 06:44:10;;;;;;;37.83;16.47;;;-3.80;99.90;;;;;;5055450;28;20301;-78
2021/12/22 06:46:36;;;;;;;32.43;15.83;;;-3.80;99.90;;;;;;5083911;28;20298;-77
2021/12/22 06:49:02;;;;;;;31.77;16.10;;;-3.80;99.90;;;;;;5057006;28;20036;-78
2021/12/22 06:51:29;;;;;;;30.53;14.73;;;-3.80;99.90;;;;;;5054822;28;20521;-78
2021/12/22 06:53:54;;;;;;;30.50;16.80;;;-3.80;99.90;;;;;;5074707;28;20852;-77
2021/12/22 06:56:20;;;;;;;30.13;15.50;;;-3.80;99.90;;;;;;5055398;28;20341;-77
2021/12/22 06:58:46;;;;;;;34.50;16.00;;;-3.80;99.90;;;;;;5062290;28;20052;-78
2021/12/22 07:01:17;;;;;;;32.73;16.23;;;-3.80;99.90;;;;;;5042322;28;20048;-78
2021/12/22 07:03:43;;;;;;;29.87;15.80;;;-3.80;99.90;;;;;;5056248;28;20082;-78
2021/12/22 07:06:08;;;;;;;39.00;16.70;;;-3.90;99.90;;;;;;5041029;28;20330;-77
2021/12/22 07:08:36;;;;;;;32.77;15.93;;;-3.90;99.90;;;;;;5067632;28;20640;-78
2021/12/22 07:11:01;;;;;;;33.57;15.60;;;-3.90;99.90;;;;;;5069561;28;20052;-78
2021/12/22 07:13:27;;;;;;;35.27;16.73;;;-3.90;99.90;;;;;;5051797;28;20834;-78
2021/12/22 07:15:53;;;;;;;36.57;16.43;;;-3.90;99.90;;;;;;5066428;28;20046;-76
2021/12/22 07:18:19;;;;;;;35.23;16.73;;;-3.90;99.90;;;;;;5055418;28;20574;-78
2021/12/22 07:20:45;;;;;;;33.43;16.17;;;-3.90;99.90;;;;;;5037421;28;20510;-77
2021/12/22 07:23:10;;;;;;;34.07;17.03;;;-3.80;99.90;;;;;;5055071;28;20052;-77
2021/12/22 07:25:38;;;;;;;34.73;16.10;;;-3.90;99.90;;;;;;5056633;28;20052;-78
2021/12/22 07:28:04;;;;;;;30.87;15.30;;;-3.90;99.90;;;;;;5055422;28;20076;-78
2021/12/22 07:30:30;;;;;;;33.70;16.07;;;-3.90;99.90;;;;;;5033591;28;20321;-78
2021/12/22 07:32:56;;;;;;;33.23;15.40;;;-3.90;99.90;;;;;;5056057;28;20667;-78
2021/12/22 07:35:32;;;;;;;32.50;14.63;;;-3.90;99.90;;;;;;5072466;28;20294;-77
2021/12/22 07:38:06;;;;;;;30.90;15.77;;;-3.90;99.90;;;;;;5071275;28;20309;-78
2021/12/22 07:40:32;;;;;;;36.53;15.50;;;-3.90;99.90;;;;;;5074081;28;20305;-76
2021/12/22 07:42:59;;;;;;;28.30;15.20;;;-3.90;99.90;;;;;;5044397;28;20044;-77
2021/12/22 07:45:25;;;;;;;32.03;15.47;;;-3.90;99.90;;;;;;5054493;28;20044;-79
2021/12/22 07:47:50;;;;;;;32.30;15.83;;;-3.90;99.90;;;;;;5068698;28;20959;-78
2021/12/22 07:50:16;;;;;;;33.47;14.63;;;-3.90;99.90;;;;;;5089014;28;20067;-78
2021/12/22 07:52:43;;;;;;;32.47;16.63;;;-3.90;99.90;;;;;;5059158;28;20421;-78
2021/12/22 07:55:09;;;;;;;26.13;14.33;;;-3.90;99.90;;;;;;5037370;28;20301;-78
2021/12/22 07:57:35;;;;;;;31.27;15.30;;;-3.80;99.90;;;;;;5053427;28;20455;-78
2021/12/22 08:00:03;;;;;;;29.70;15.80;;;-3.80;99.90;;;;;;5060403;28;20072;-78
2021/12/22 08:02:38;;;;;;;26.77;14.30;;;-3.80;99.90;;;;;;5064358;28;20560;-77
2021/12/22 08:05:04;;;;;;;34.13;15.70;;;-3.80;99.90;;;;;;5071041;28;20377;-77
2021/12/22 08:07:30;;;;;;;34.27;16.93;;;-3.80;99.90;;;;;;5054183;28;20040;-77
2021/12/22 08:09:56;;;;;;;30.60;14.80;;;-3.70;99.90;;;;;;5069466;28;20378;-77
2021/12/22 08:12:22;;;;;;;29.37;14.87;;;-3.70;99.90;;;;;;5052410;28;20413;-78
2021/12/22 08:14:47;;;;;;;30.70;15.37;;;-3.60;99.90;;;;;;5077119;28;20127;-78
2021/12/22 08:17:14;;;;;;;32.53;16.43;;;-3.60;99.90;;;;;;5052293;28;20071;-78
2021/12/22 08:19:41;;;;;;;28.83;15.40;;;-3.50;99.90;;;;;;5068896;28;20044;-77
2021/12/22 08:22:07;;;;;;;29.20;16.00;;;-3.40;99.90;;;;;;5051169;28;20298;-77
2021/12/22 08:24:33;;;;;;;36.83;15.83;;;-3.30;99.90;;;;;;5041966;28;20306;-77
2021/12/22 08:26:59;;;;;;;31.93;16.07;;;-3.30;99.90;;;;;;5037467;28;20072;-78
2021/12/22 08:29:25;;;;;;;35.17;16.70;;;-3.20;99.90;;;;;;5054577;28;20047;-78
2021/12/22 08:31:50;;;;;;;36.97;18.00;;;-3.10;99.90;;;;;;5052210;28;20367;-77
2021/12/22 08:34:24;;;;;;;45.13;21.33;;;-3.10;99.90;;;;;;5046693;28;20044;-77
2021/12/22 08:39:35;;;;;;;32.40;17.13;;;-2.90;99.90;;;;;;5056628;28;20134;-78
2021/12/22 08:42:01;;;;;;;34.27;17.03;;;-2.80;99.90;;;;;;5052762;28;20306;-79
2021/12/22 08:44:27;;;;;;;30.00;16.23;;;-2.70;99.90;;;;;;5064186;28;20309;-78
2021/12/22 08:46:54;;;;;;;30.07;15.40;;;-2.70;99.90;;;;;;5051300;28;20306;-78
2021/12/22 08:49:22;;;;;;;29.73;16.60;;;-2.60;99.90;;;;;;5031053;28;20109;-77
2021/12/22 08:51:49;;;;;;;28.03;15.13;;;-2.50;99.90;;;;;;5051983;28;20381;-78
2021/12/22 08:54:15;;;;;;;33.83;16.40;;;-2.50;99.90;;;;;;5055996;28;20301;-77
2021/12/22 08:56:41;;;;;;;29.80;17.53;;;-2.40;99.90;;;;;;5074487;28;20305;-77
2021/12/22 08:59:08;;;;;;;32.10;16.43;;;-2.30;99.90;;;;;;5092081;28;20298;-78
2021/12/22 09:01:34;;;;;;;28.63;16.30;;;-2.20;99.90;;;;;;5054976;28;20806;-77
2021/12/22 09:04:00;;;;;;;31.53;16.17;;;-2.10;99.90;;;;;;5074480;28;20305;-78
2021/12/22 09:06:27;;;;;;;28.27;15.60;;;-2.10;99.90;;;;;;5073352;28;20048;-77
2021/12/22 09:08:53;;;;;;;29.33;14.70;;;-2.00;99.90;;;;;;5073646;28;20458;-78
2021/12/22 09:11:20;;;;;;;30.63;15.43;;;-2.00;99.90;;;;;;5073943;28;20329;-78
2021/12/22 09:13:46;;;;;;;24.97;15.27;;;-1.90;99.90;;;;;;5064363;28;20497;-78
2021/12/22 09:16:13;;;;;;;28.80;15.53;;;-1.90;99.90;;;;;;5075539;28;20864;-78
2021/12/22 09:18:39;;;;;;;30.90;15.87;;;-1.80;99.90;;;;;;5033420;28;20314;-77
2021/12/22 09:21:06;;;;;;;28.20;15.37;;;-1.80;99.90;;;;;;5054378;28;20352;-78
2021/12/22 09:23:34;;;;;;;25.50;14.63;;;-1.70;99.90;;;;;;5040401;28;20680;-78
2021/12/22 09:26:00;;;;;;;31.27;16.33;;;-1.60;99.90;;;;;;5071627;28;20890;-79
2021/12/22 09:28:26;;;;;;;28.10;15.53;;;-1.50;99.90;;;;;;5069330;28;20306;-79
2021/12/22 09:30:52;;;;;;;29.50;14.73;;;-1.40;99.90;;;;;;5039950;28;20670;-80
2021/12/22 09:33:19;;;;;;;29.93;15.17;;;-1.40;99.90;;;;;;5075833;28;20097;-78
2021/12/22 09:35:46;;;;;;;24.70;14.20;;;-1.30;99.90;;;;;;5072030;28;20305;-78
2021/12/22 09:38:13;;;;;;;28.60;14.53;;;-1.30;99.90;;;;;;5056500;28;20308;-78
2021/12/22 09:40:40;;;;;;;26.83;14.07;;;-1.20;99.90;;;;;;5050878;28;20304;-78
2021/12/22 09:43:07;;;;;;;33.50;16.13;;;-1.10;99.90;;;;;;5040524;28;20302;-78
2021/12/22 09:45:35;;;;;;;30.90;15.97;;;-1.00;99.90;;;;;;5071722;28;20401;-78
2021/12/22 09:50:55;;;;;;;25.23;16.10;;;-0.10;99.90;;;;;;5053296;28;20381;-79
2021/12/22 09:53:22;;;;;;;24.40;14.93;;;0.70;99.90;;;;;;5071365;28;20298;-80
2021/12/22 09:55:51;;;;;;;21.73;14.07;;;1.40;99.90;;;;;;5052659;28;20294;-78
2021/12/22 09:58:17;;;;;;;23.80;13.93;;;1.70;99.90;;;;;;5055647;28;20409;-78
2021/12/22 10:00:43;;;;;;;22.10;12.63;;;2.10;99.90;;;;;;5050684;28;20397;-78
2021/12/22 10:03:11;;;;;;;22.10;13.10;;;2.50;99.90;;;;;;5069462;28;20120;-78
2021/12/22 10:05:38;;;;;;;22.23;13.03;;;2.60;99.90;;;;;;5051720;28;20336;-79
2021/12/22 10:08:06;;;;;;;20.93;13.17;;;2.60;99.90;;;;;;5048693;28;20795;-79
2021/12/22 10:10:32;;;;;;;23.00;12.87;;;2.50;99.90;;;;;;5039291;28;20306;-79
2021/12/22 10:13:06;;;;;;;21.33;12.83;;;2.40;99.90;;;;;;5053684;28;20298;-79
2021/12/22 10:15:34;;;;;;;19.07;12.67;;;2.50;99.90;;;;;;5074058;28;20302;-78
2021/12/22 10:18:08;;;;;;;19.93;12.07;;;2.90;99.90;;;;;;5037678;28;20350;-79
2021/12/22 10:20:34;;;;;;;20.25;13.13;;;3.30;99.90;;;;;;5058340;28;20310;-78
2021/12/22 10:23:00;;;;;;;19.47;12.13;;;3.60;99.90;;;;;;5052748;28;20059;-78
2021/12/22 10:25:28;;;;;;;18.20;12.00;;;3.90;99.90;;;;;;5053250;28;20044;-78
2021/12/22 10:27:59;;;;;;;21.37;12.13;;;4.30;99.90;;;;;;5055068;28;20056;-77
2021/12/22 10:30:30;;;;;;;17.70;11.80;;;4.60;99.90;;;;;;5054710;28;20769;-78
2021/12/22 10:33:08;;;;;;;20.97;12.73;;;5.00;99.30;;;;;;5056589;28;20313;-78
2021/12/22 10:35:34;;;;;;;18.27;12.40;;;5.10;98.40;;;;;;5050087;28;20305;-78
2021/12/22 10:38:02;;;;;;;19.20;12.00;;;5.00;98.20;;;;;;5069407;28;20355;-78
2021/12/22 10:40:31;;;;;;;17.10;11.27;;;4.90;97.80;;;;;;5053113;28;20302;-78
2021/12/22 10:42:58;;;;;;;19.93;11.70;;;4.70;97.20;;;;;;5072891;28;20305;-79
2021/12/22 10:45:27;;;;;;;17.60;11.47;;;4.30;96.70;;;;;;5077209;28;20044;-78
2021/12/22 10:50:41;;;;;;;18.50;12.00;;;3.80;97.50;;;;;;5065127;28;20690;-79
2021/12/22 10:53:08;;;;;;;20.13;11.87;;;3.60;97.40;;;;;;5055302;28;20445;-79
2021/12/22 10:55:39;;;;;;;18.17;10.90;;;3.40;97.70;;;;;;5050382;28;20302;-80
2021/12/22 10:58:16;;;;;;;19.57;11.77;;;3.10;97.70;;;;;;5053282;28;20309;-79
2021/12/22 11:00:57;;;;;;;19.27;11.73;;;2.80;98.20;;;;;;5050760;28;20440;-79
2021/12/22 11:03:33;;;;;;;16.43;10.50;;;2.80;98.60;;;;;;5045758;28;20313;-79
2021/12/22 11:06:01;;;;;;;17.20;10.97;;;2.90;98.80;;;;;;5061402;28;20691;-79
2021/12/22 11:08:27;;;;;;;16.10;10.67;;;2.80;99.10;;;;;;5043020;28;20563;-80
2021/12/22 11:10:53;;;;;;;17.20;10.60;;;3.10;99.30;;;;;;5056286;28;20306;-81
2021/12/22 11:13:20;;;;;;;17.07;11.13;;;3.50;99.20;;;;;;5060440;28;20066;-80
2021/12/22 11:15:48;;;;;;;15.97;10.57;;;4.10;99.30;;;;;;5047233;28;20306;-80
2021/12/22 11:18:27;;;;;;;17.83;11.00;;;4.50;98.70;;;;;;5073734;28;20799;-81
2021/12/22 11:21:09;;;;;;;17.27;11.20;;;4.70;98.00;;;;;;5087053;28;20777;-81
2021/12/22 11:23:35;;;;;;;18.27;10.77;;;4.80;97.40;;;;;;5080606;28;21010;-81
2021/12/22 11:26:01;;;;;;;20.00;11.30;;;4.70;96.90;;;;;;5058652;28;20920;-81
2021/12/22 11:28:27;;;;;;;16.77;10.47;;;4.70;96.80;;;;;;5056365;28;20388;-81
2021/12/22 11:30:55;;;;;;;16.93;10.47;;;4.70;96.80;;;;;;5064450;28;20044;-81
2021/12/22 11:33:21;;;;;;;16.97;11.03;;;4.70;96.60;;;;;;5057437;28;20032;-81
2021/12/22 11:35:47;;;;;;;15.63;9.73;;;4.90;96.70;;;;;;5057666;28;20385;-81
2021/12/22 11:38:13;;;;;;;16.00;9.63;;;5.10;96.50;;;;;;5058698;28;20048;-82
2021/12/22 11:40:42;;;;;;;14.13;9.57;;;5.20;96.40;;;;;;5078376;28;20055;-81
2021/12/22 11:43:08;;;;;;;17.37;9.53;;;5.10;95.50;;;;;;5062739;28;20667;-81
2021/12/22 11:45:35;;;;;;;15.30;10.40;;;4.90;95.50;;;;;;5041206;28;20371;-81
2021/12/22 11:48:03;;;;;;;16.13;10.90;;;4.60;95.60;;;;;;5039284;28;20441;-80
2021/12/22 11:50:32;;;;;;;16.37;10.33;;;4.30;96.00;;;;;;5073159;28;20310;-81
2021/12/22 11:52:58;;;;;;;16.50;10.83;;;4.00;96.10;;;;;;5055462;28;20074;-81
2021/12/22 11:55:26;;;;;;;20.20;11.40;;;3.70;96.60;;;;;;5035671;28;20345;-80
2021/12/22 11:57:54;;;;;;;16.13;10.77;;;3.40;96.80;;;;;;5068444;28;20741;-81
2021/12/22 12:00:26;;;;;;;17.67;10.57;;;3.20;97.30;;;;;;5053483;28;20709;-82
2021/12/22 12:02:53;;;;;;;17.20;10.50;;;3.20;97.90;;;;;;5050997;28;20307;-82
2021/12/22 12:05:22;;;;;;;16.97;10.63;;;3.40;98.20;;;;;;5057773;28;20663;-81
2021/12/22 12:07:51;;;;;;;16.07;10.07;;;3.80;98.30;;;;;;5051811;28;20314;-80
2021/12/22 12:10:42;;;;;;;17.67;10.77;;;4.10;98.10;;;;;;5038677;28;20323;-80
2021/12/22 12:13:21;;;;;;;14.73;9.47;;;4.30;97.60;;;;;;5049478;28;20376;-80
2021/12/22 12:22:00;;;;;;;13.83;9.77;;;3.80;97.30;;;;;;5083091;28;20373;-79
2021/12/22 12:24:34;;;;;;;16.13;10.40;;;3.60;97.70;;;;;;5061735;28;20332;-79
2021/12/22 12:27:22;;;;;;;18.53;10.07;;;3.60;98.20;;;;;;5043086;28;20692;-79
2021/12/22 12:29:55;;;;;;;21.43;10.03;;;3.80;98.20;;;;;;5063295;28;20648;-79
2021/12/22 12:32:54;;;;;;;15.53;10.23;;;4.10;97.70;;;;;;5050158;28;20644;-79
2021/12/22 12:35:28;;;;;;;16.30;10.23;;;4.40;97.70;;;;;;5078262;28;20294;-79
2021/12/22 12:38:07;;;;;;;14.80;9.45;;;4.60;97.50;;;;;;5047098;28;20385;-79
2021/12/22 12:41:12;;;;;;;17.77;9.23;;;4.90;97.00;;;;;;5081039;28;20101;-80
2021/12/22 12:44:07;;;;;;;16.30;10.07;;;4.80;96.20;;;;;;5063956;28;20044;-79
2021/12/22 12:46:39;;;;;;;15.13;10.23;;;4.60;96.70;;;;;;5061548;28;20047;-78
2021/12/22 12:49:36;;;;;;;16.80;10.10;;;4.50;96.70;;;;;;5079748;28;20040;-79
2021/12/22 12:52:09;;;;;;;15.53;10.40;;;4.30;96.60;;;;;;5063480;28;20405;-79
2021/12/22 12:54:40;;;;;;;17.70;10.82;;;3.90;96.70;;;;;;5060807;28;20310;-78
2021/12/22 12:57:29;;;;;;;16.03;10.03;;;3.50;97.10;;;;;;5080399;28;20062;-79
2021/12/22 13:00:02;;;;;;;15.40;10.40;;;3.30;97.70;;;;;;5081540;28;20044;-79
2021/12/22 13:02:30;;;;;;;19.53;10.53;;;3.00;98.30;;;;;;5068478;28;20663;-79